NBO weather

Jomo Kenyatta International Airport
Nairobi, Nairobi Province, Kenya

Public forecast

Using degrees Celsius for public forecast. Weather courtesy of forecast.io.

Current aviation weather report (METAR) for Jomo Kenyatta International Airport

Retrieved 2019/10/16 21:30 UTC (10 minutes ago):

HKJK 162130Z 03005KT 9999 BKN022 18/16 Q1021 NOSIG

Aviation forecast (TAF) for Jomo Kenyatta International Airport

Retrieved 2019/10/16 18:12 UTC (3 hours ago):

TAF HKJK 161700Z 1618/1724 09010KT 9999 FEW024CB SCT026 BECMG 1620/1623 12005KT SCT024 BECMG 1700/1706 03005KT -RA SCT008 BKN016 PROB40 TEMPO 1708/1711 09008KT -SHRA FEW023CB BKN024 BECMG 1712/1715 SHRA FEW024CB BKN025 BECMG 1721/1723 12008KT